sensor_id;sensor_type;location;lat;lon;timestamp;temperature;humidity
16327;DHT22;34812;49.846;9.610;2023-01-10T00:00:34;5.60;99.90
16327;DHT22;34812;49.846;9.610;2023-01-10T00:01:36;5.60;99.90
16327;DHT22;34812;49.846;9.610;2023-01-10T00:02:37;5.50;99.90
16327;DHT22;34812;49.846;9.610;2023-01-10T00:03:39;5.60;99.90
16327;DHT22;34812;49.846;9.610;2023-01-10T00:04:40;5.60;99.90
16327;DHT22;34812;49.846;9.610;2023-01-10T00:05:41;5.60;99.90
16327;DHT22;34812;49.846;9.610;2023-01-10T00:06:43;5.70;99.90
16327;DHT22;34812;49.846;9.610;2023-01-10T00:07:44;5.70;99.90
16327;DHT22;34812;49.846;9.610;2023-01-10T00:08:46;5.70;99.90
16327;DHT22;34812;49.846;9.610;2023-01-10T00:09:47;5.70;99.90
16327;DHT22;34812;49.846;9.610;2023-01-10T00:10:48;5.70;99.90
16327;DHT22;34812;49.846;9.610;2023-01-10T00:11:49;5.70;99.90
16327;DHT22;34812;49.846;9.610;2023-01-10T00:13:13;5.70;99.90
16327;DHT22;34812;49.846;9.610;2023-01-10T00:14:25;5.60;99.90
16327;DHT22;34812;49.846;9.610;2023-01-10T00:15:30;5.70;99.90
16327;DHT22;34812;49.846;9.610;2023-01-10T00:16:31;5.70;99.90
16327;DHT22;34812;49.846;9.610;2023-01-10T00:17:33;5.70;99.90
16327;DHT22;34812;49.846;9.610;2023-01-10T00:18:34;5.80;99.90
16327;DHT22;34812;49.846;9.610;2023-01-10T00:19:35;5.70;99.90
16327;DHT22;34812;49.846;9.610;2023-01-10T00:20:36;5.70;99.90
16327;DHT22;34812;49.846;9.610;2023-01-10T00:21:38;5.70;99.90
16327;DHT22;34812;49.846;9.610;2023-01-10T00:22:39;5.70;99.90
16327;DHT22;34812;49.846;9.610;2023-01-10T00:23:40;5.70;99.90
16327;DHT22;34812;49.846;9.610;2023-01-10T00:24:42;5.80;99.90
16327;DHT22;34812;49.846;9.610;2023-01-10T00:25:44;5.80;99.90
16327;DHT22;34812;49.846;9.610;2023-01-10T00:26:47;5.80;99.90
16327;DHT22;34812;49.846;9.610;2023-01-10T00:27:52;5.70;99.90
16327;DHT22;34812;49.846;9.610;2023-01-10T00:29:02;5.70;99.90
16327;DHT22;34812;49.846;9.610;2023-01-10T00:30:07;5.80;99.90
16327;DHT22;34812;49.846;9.610;2023-01-10T00:31:13;5.70;99.90
16327;DHT22;34812;49.846;9.610;2023-01-10T00:32:16;5.70;99.90
16327;DHT22;34812;49.846;9.610;2023-01-10T00:33:17;5.70;99.90
16327;DHT22;34812;49.846;9.610;2023-01-10T00:34:20;5.70;99.90
16327;DHT22;34812;49.846;9.610;2023-01-10T00:35:21;5.70;99.90
16327;DHT22;34812;49.846;9.610;2023-01-10T00:36:22;5.80;99.90
16327;DHT22;34812;49.846;9.610;2023-01-10T00:37:23;5.80;99.90
16327;DHT22;34812;49.846;9.610;2023-01-10T00:38:25;5.70;99.90
16327;DHT22;34812;49.846;9.610;2023-01-10T00:39:25;5.70;99.90
16327;DHT22;34812;49.846;9.610;2023-01-10T00:40:27;5.70;99.90
16327;DHT22;34812;49.846;9.610;2023-01-10T00:41:28;5.70;99.90
16327;DHT22;34812;49.846;9.610;2023-01-10T00:42:47;5.70;99.90
16327;DHT22;34812;49.846;9.610;2023-01-10T00:44:06;5.70;99.90
16327;DHT22;34812;49.846;9.610;2023-01-10T00:45:09;5.70;99.90
16327;DHT22;34812;49.846;9.610;2023-01-10T00:46:11;5.70;99.90
16327;DHT22;34812;49.846;9.610;2023-01-10T00:47:13;5.80;99.90
16327;DHT22;34812;49.846;9.610;2023-01-10T00:48:15;5.70;99.90
16327;DHT22;34812;49.846;9.610;2023-01-10T00:49:16;5.80;99.90
16327;DHT22;34812;49.846;9.610;2023-01-10T00:50:18;5.90;99.90
16327;DHT22;34812;49.846;9.610;2023-01-10T00:51:19;5.80;99.90
16327;DHT22;34812;49.846;9.610;2023-01-10T00:52:20;5.80;99.90
16327;DHT22;34812;49.846;9.610;2023-01-10T00:53:21;5.80;99.90
16327;DHT22;34812;49.846;9.610;2023-01-10T00:54:23;5.90;99.90
16327;DHT22;34812;49.846;9.610;2023-01-10T00:55:24;5.90;99.90
16327;DHT22;34812;49.846;9.610;2023-01-10T00:56:25;5.80;99.90
16327;DHT22;34812;49.846;9.610;2023-01-10T00:57:26;5.80;99.90
16327;DHT22;34812;49.846;9.610;2023-01-10T00:58:28;5.80;99.90
16327;DHT22;34812;49.846;9.610;2023-01-10T00:59:28;5.80;99.90
16327;DHT22;34812;49.846;9.610;2023-01-10T01:00:31;5.80;99.90
16327;DHT22;34812;49.846;9.610;2023-01-10T01:01:32;6.00;99.90
16327;DHT22;34812;49.846;9.610;2023-01-10T01:02:34;5.90;99.90
16327;DHT22;34812;49.846;9.610;2023-01-10T01:03:35;6.00;99.90
16327;DHT22;34812;49.846;9.610;2023-01-10T01:04:37;6.00;99.90
16327;DHT22;34812;49.846;9.610;2023-01-10T01:05:39;6.00;99.90
16327;DHT22;34812;49.846;9.610;2023-01-10T01:06:42;6.00;99.90
16327;DHT22;34812;49.846;9.610;2023-01-10T01:07:46;6.00;99.90
16327;DHT22;34812;49.846;9.610;2023-01-10T01:08:47;6.00;99.90
16327;DHT22;34812;49.846;9.610;2023-01-10T01:09:48;6.10;99.90
16327;DHT22;34812;49.846;9.610;2023-01-10T01:11:10;6.10;99.90
16327;DHT22;34812;49.846;9.610;2023-01-10T01:12:11;6.20;99.90
16327;DHT22;34812;49.846;9.610;2023-01-10T01:13:14;6.20;99.90
16327;DHT22;34812;49.846;9.610;2023-01-10T01:14:15;6.20;99.90
16327;DHT22;34812;49.846;9.610;2023-01-10T01:15:16;6.20;99.90
16327;DHT22;34812;49.846;9.610;2023-01-10T01:16:19;6.20;99.90
16327;DHT22;34812;49.846;9.610;2023-01-10T01:17:20;6.20;99.90
16327;DHT22;34812;49.846;9.610;2023-01-10T01:18:21;6.20;99.90
16327;DHT22;34812;49.846;9.610;2023-01-10T01:19:22;6.20;99.90
16327;DHT22;34812;49.846;9.610;2023-01-10T01:20:24;6.20;99.90
16327;DHT22;34812;49.846;9.610;2023-01-10T01:21:24;6.20;99.90
16327;DHT22;34812;49.846;9.610;2023-01-10T01:22:27;6.20;99.90
16327;DHT22;34812;49.846;9.610;2023-01-10T01:23:28;6.20;99.90
16327;DHT22;34812;49.846;9.610;2023-01-10T01:24:30;6.30;99.90
16327;DHT22;34812;49.846;9.610;2023-01-10T01:25:31;6.30;99.90
16327;DHT22;34812;49.846;9.610;2023-01-10T01:26:33;6.30;99.90
16327;DHT22;34812;49.846;9.610;2023-01-10T01:27:34;6.30;99.90
16327;DHT22;34812;49.846;9.610;2023-01-10T01:28:37;6.30;99.90
16327;DHT22;34812;49.846;9.610;2023-01-10T01:29:38;6.30;99.90
16327;DHT22;34812;49.846;9.610;2023-01-10T01:30:39;6.30;99.90
16327;DHT22;34812;49.846;9.610;2023-01-10T01:31:41;6.20;99.90
16327;DHT22;34812;49.846;9.610;2023-01-10T01:32:43;6.20;99.90
16327;DHT22;34812;49.846;9.610;2023-01-10T01:33:44;6.30;99.90
16327;DHT22;34812;49.846;9.610;2023-01-10T01:34:46;6.30;99.90
16327;DHT22;34812;49.846;9.610;2023-01-10T01:35:48;6.20;99.90
16327;DHT22;34812;49.846;9.610;2023-01-10T01:36:50;6.20;99.90
16327;DHT22;34812;49.846;9.610;2023-01-10T01:37:51;6.20;99.90
16327;DHT22;34812;49.846;9.610;2023-01-10T01:38:52;6.20;99.90
16327;DHT22;34812;49.846;9.610;2023-01-10T01:39:53;6.20;99.90
16327;DHT22;34812;49.846;9.610;2023-01-10T01:40:55;6.20;99.90
16327;DHT22;34812;49.846;9.610;2023-01-10T01:41:55;6.20;99.90
16327;DHT22;34812;49.846;9.610;2023-01-10T01:42:57;6.20;99.90
16327;DHT22;34812;49.846;9.610;2023-01-10T01:44:00;6.20;99.90
16327;DHT22;34812;49.846;9.610;2023-01-10T01:45:23;6.20;99.90
16327;DHT22;34812;49.846;9.610;2023-01-10T01:46:27;6.10;99.90
16327;DHT22;34812;49.846;9.610;2023-01-10T01:47:31;6.10;99.90
16327;DHT22;34812;49.846;9.610;2023-01-10T01:48:36;6.10;99.90
16327;DHT22;34812;49.846;9.610;2023-01-10T01:49:40;6.10;99.90
16327;DHT22;34812;49.846;9.610;2023-01-10T01:50:44;6.10;99.90
16327;DHT22;34812;49.846;9.610;2023-01-10T01:51:48;6.20;99.90
16327;DHT22;34812;49.846;9.610;2023-01-10T01:52:53;6.10;99.90
16327;DHT22;34812;49.846;9.610;2023-01-10T01:53:57;6.10;99.90
16327;DHT22;34812;49.846;9.610;2023-01-10T01:55:00;6.10;99.90
16327;DHT22;34812;49.846;9.610;2023-01-10T01:56:06;6.10;99.90
16327;DHT22;34812;49.846;9.610;2023-01-10T01:57:11;6.10;99.90
16327;DHT22;34812;49.846;9.610;2023-01-10T01:58:16;6.10;99.90
16327;DHT22;34812;49.846;9.610;2023-01-10T01:59:21;6.20;99.90
16327;DHT22;34812;49.846;9.610;2023-01-10T02:00:23;6.20;99.90
16327;DHT22;34812;49.846;9.610;2023-01-10T02:01:25;6.30;99.90
16327;DHT22;34812;49.846;9.610;2023-01-10T02:02:31;6.30;99.90
16327;DHT22;34812;49.846;9.610;2023-01-10T02:03:36;6.30;99.90
16327;DHT22;34812;49.846;9.610;2023-01-10T02:04:42;6.30;99.90
16327;DHT22;34812;49.846;9.610;2023-01-10T02:05:46;6.40;99.90
16327;DHT22;34812;49.846;9.610;2023-01-10T02:06:50;6.30;99.90
16327;DHT22;34812;49.846;9.610;2023-01-10T02:07:54;6.30;99.90
16327;DHT22;34812;49.846;9.610;2023-01-10T02:09:04;6.40;99.90
16327;DHT22;34812;49.846;9.610;2023-01-10T02:10:10;6.40;99.90
16327;DHT22;34812;49.846;9.610;2023-01-10T02:11:12;6.40;99.90
16327;DHT22;34812;49.846;9.610;2023-01-10T02:12:14;6.30;99.90
16327;DHT22;34812;49.846;9.610;2023-01-10T02:13:17;6.30;99.90
16327;DHT22;34812;49.846;9.610;2023-01-10T02:14:20;6.30;99.90
16327;DHT22;34812;49.846;9.610;2023-01-10T02:15:23;6.30;99.90
16327;DHT22;34812;49.846;9.610;2023-01-10T02:16:24;6.30;99.90
16327;DHT22;34812;49.846;9.610;2023-01-10T02:17:26;6.20;99.90
16327;DHT22;34812;49.846;9.610;2023-01-10T02:18:28;6.20;99.90
16327;DHT22;34812;49.846;9.610;2023-01-10T02:19:37;6.20;99.90
16327;DHT22;34812;49.846;9.610;2023-01-10T02:20:53;6.20;99.90
16327;DHT22;34812;49.846;9.610;2023-01-10T02:22:26;6.20;99.90
16327;DHT22;34812;49.846;9.610;2023-01-10T02:23:54;6.20;99.90
16327;DHT22;34812;49.846;9.610;2023-01-10T02:25:14;6.20;99.90
16327;DHT22;34812;49.846;9.610;2023-01-10T02:26:37;6.10;99.90
16327;DHT22;34812;49.846;9.610;2023-01-10T02:28:01;6.10;99.90
16327;DHT22;34812;49.846;9.610;2023-01-10T02:31:14;5.90;99.90
16327;DHT22;34812;49.846;9.610;2023-01-10T02:32:27;6.00;99.90
16327;DHT22;34812;49.846;9.610;2023-01-10T02:33:33;5.90;99.90
16327;DHT22;34812;49.846;9.610;2023-01-10T02:34:45;5.90;99.90
16327;DHT22;34812;49.846;9.610;2023-01-10T02:36:02;5.90;99.90
16327;DHT22;34812;49.846;9.610;2023-01-10T02:37:11;5.90;99.90
16327;DHT22;34812;49.846;9.610;2023-01-10T02:38:18;5.90;99.90
16327;DHT22;34812;49.846;9.610;2023-01-10T02:39:28;5.90;99.90
16327;DHT22;34812;49.846;9.610;2023-01-10T02:40:38;5.80;99.90
16327;DHT22;34812;49.846;9.610;2023-01-10T02:41:49;5.80;99.90
16327;DHT22;34812;49.846;9.610;2023-01-10T02:42:59;5.80;99.90
16327;DHT22;34812;49.846;9.610;2023-01-10T02:44:06;5.80;99.90
16327;DHT22;34812;49.846;9.610;2023-01-10T02:45:13;5.80;99.90
16327;DHT22;34812;49.846;9.610;2023-01-10T02:46:17;5.70;99.90
16327;DHT22;34812;49.846;9.610;2023-01-10T02:47:25;5.70;99.90
16327;DHT22;34812;49.846;9.610;2023-01-10T02:48:26;5.70;99.90
16327;DHT22;34812;49.846;9.610;2023-01-10T02:49:28;5.60;99.90
16327;DHT22;34812;49.846;9.610;2023-01-10T02:50:45;5.60;99.90
16327;DHT22;34812;49.846;9.610;2023-01-10T02:51:48;5.60;99.90
16327;DHT22;34812;49.846;9.610;2023-01-10T02:52:50;5.70;99.90
16327;DHT22;34812;49.846;9.610;2023-01-10T02:53:54;5.60;99.90
16327;DHT22;34812;49.846;9.610;2023-01-10T02:55:00;5.60;99.90
16327;DHT22;34812;49.846;9.610;2023-01-10T02:56:23;5.50;99.90
16327;DHT22;34812;49.846;9.610;2023-01-10T02:57:36;5.60;99.90
16327;DHT22;34812;49.846;9.610;2023-01-10T02:58:52;5.60;99.90
16327;DHT22;34812;49.846;9.610;2023-01-10T03:00:17;5.70;99.90
16327;DHT22;34812;49.846;9.610;2023-01-10T03:01:32;5.60;99.90
16327;DHT22;34812;49.846;9.610;2023-01-10T03:02:55;5.70;99.90
16327;DHT22;34812;49.846;9.610;2023-01-10T03:04:05;5.70;99.90
16327;DHT22;34812;49.846;9.610;2023-01-10T03:05:16;5.70;99.90
16327;DHT22;34812;49.846;9.610;2023-01-10T03:06:24;5.80;99.90
16327;DHT22;34812;49.846;9.610;2023-01-10T03:07:33;5.80;99.90
16327;DHT22;34812;49.846;9.610;2023-01-10T03:08:39;5.80;99.90
16327;DHT22;34812;49.846;9.610;2023-01-10T03:09:49;5.80;99.90
16327;DHT22;34812;49.846;9.610;2023-01-10T03:10:57;5.80;99.90
16327;DHT22;34812;49.846;9.610;2023-01-10T03:12:02;5.80;99.90
16327;DHT22;34812;49.846;9.610;2023-01-10T03:13:10;5.80;99.90
16327;DHT22;34812;49.846;9.610;2023-01-10T03:14:15;5.80;99.90
16327;DHT22;34812;49.846;9.610;2023-01-10T03:15:18;5.80;99.90
16327;DHT22;34812;49.846;9.610;2023-01-10T03:16:26;5.80;99.90
16327;DHT22;34812;49.846;9.610;2023-01-10T03:17:30;5.70;99.90
16327;DHT22;34812;49.846;9.610;2023-01-10T03:18:37;5.70;99.90
16327;DHT22;34812;49.846;9.610;2023-01-10T03:19:45;5.60;99.90
16327;DHT22;34812;49.846;9.610;2023-01-10T03:20:49;5.60;99.90
16327;DHT22;34812;49.846;9.610;2023-01-10T03:21:54;5.60;99.90
16327;DHT22;34812;49.846;9.610;2023-01-10T03:22:56;5.70;99.90
16327;DHT22;34812;49.846;9.610;2023-01-10T03:24:02;5.70;99.90
16327;DHT22;34812;49.846;9.610;2023-01-10T03:25:07;5.70;99.90
16327;DHT22;34812;49.846;9.610;2023-01-10T03:26:12;5.80;99.90
16327;DHT22;34812;49.846;9.610;2023-01-10T03:27:20;5.80;99.90
16327;DHT22;34812;49.846;9.610;2023-01-10T03:28:26;5.80;99.90
16327;DHT22;34812;49.846;9.610;2023-01-10T03:29:34;5.80;99.90
16327;DHT22;34812;49.846;9.610;2023-01-10T03:30:41;5.70;99.90
16327;DHT22;34812;49.846;9.610;2023-01-10T03:31:47;5.70;99.90
16327;DHT22;34812;49.846;9.610;2023-01-10T03:32:51;5.70;99.90
16327;DHT22;34812;49.846;9.610;2023-01-10T03:33:53;5.60;99.90
16327;DHT22;34812;49.846;9.610;2023-01-10T03:34:56;5.70;99.90
16327;DHT22;34812;49.846;9.610;2023-01-10T03:36:07;5.70;99.90
16327;DHT22;34812;49.846;9.610;2023-01-10T03:37:12;5.60;99.90
16327;DHT22;34812;49.846;9.610;2023-01-10T03:38:20;5.60;99.90
16327;DHT22;34812;49.846;9.610;2023-01-10T03:39:29;5.60;99.90
16327;DHT22;34812;49.846;9.610;2023-01-10T03:40:35;5.60;99.90
16327;DHT22;34812;49.846;9.610;2023-01-10T03:41:46;5.60;99.90
16327;DHT22;34812;49.846;9.610;2023-01-10T03:42:54;5.50;99.90
16327;DHT22;34812;49.846;9.610;2023-01-10T03:44:17;5.60;99.90
16327;DHT22;34812;49.846;9.610;2023-01-10T03:45:41;5.60;99.90
16327;DHT22;34812;49.846;9.610;2023-01-10T03:46:48;5.60;99.90
16327;DHT22;34812;49.846;9.610;2023-01-10T03:47:52;5.50;99.90
16327;DHT22;34812;49.846;9.610;2023-01-10T03:48:56;5.50;99.90
16327;DHT22;34812;49.846;9.610;2023-01-10T03:50:00;5.50;99.90
16327;DHT22;34812;49.846;9.610;2023-01-10T03:51:04;5.50;99.90
16327;DHT22;34812;49.846;9.610;2023-01-10T03:52:08;5.40;99.90
16327;DHT22;34812;49.846;9.610;2023-01-10T03:53:11;5.40;99.90
16327;DHT22;34812;49.846;9.610;2023-01-10T03:54:14;5.40;99.90
16327;DHT22;34812;49.846;9.610;2023-01-10T03:55:19;5.50;99.90
16327;DHT22;34812;49.846;9.610;2023-01-10T03:56:20;5.50;99.90
16327;DHT22;34812;49.846;9.610;2023-01-10T03:57:22;5.50;99.90
16327;DHT22;34812;49.846;9.610;2023-01-10T03:58:24;5.60;99.90
16327;DHT22;34812;49.846;9.610;2023-01-10T03:59:26;5.60;99.90
16327;DHT22;34812;49.846;9.610;2023-01-10T04:00:28;5.50;99.90
16327;DHT22;34812;49.846;9.610;2023-01-10T04:01:30;5.60;99.90
16327;DHT22;34812;49.846;9.610;2023-01-10T04:02:31;5.60;99.90
16327;DHT22;34812;49.846;9.610;2023-01-10T04:03:32;5.60;99.90
16327;DHT22;34812;49.846;9.610;2023-01-10T04:04:35;5.60;99.90
16327;DHT22;34812;49.846;9.610;2023-01-10T04:05:36;5.50;99.90
16327;DHT22;34812;49.846;9.610;2023-01-10T04:06:37;5.50;99.90
16327;DHT22;34812;49.846;9.610;2023-01-10T04:07:38;5.50;99.90
16327;DHT22;34812;49.846;9.610;2023-01-10T04:08:40;5.50;99.90
16327;DHT22;34812;49.846;9.610;2023-01-10T04:09:40;5.50;99.90
16327;DHT22;34812;49.846;9.610;2023-01-10T04:10:42;5.60;99.90
16327;DHT22;34812;49.846;9.610;2023-01-10T04:11:43;5.70;99.90
16327;DHT22;34812;49.846;9.610;2023-01-10T04:12:44;5.70;99.90
16327;DHT22;34812;49.846;9.610;2023-01-10T04:13:45;5.80;99.90
16327;DHT22;34812;49.846;9.610;2023-01-10T04:14:48;5.80;99.90
16327;DHT22;34812;49.846;9.610;2023-01-10T04:15:48;5.80;99.90
16327;DHT22;34812;49.846;9.610;2023-01-10T04:16:50;5.70;99.90
16327;DHT22;34812;49.846;9.610;2023-01-10T04:17:51;5.70;99.90
16327;DHT22;34812;49.846;9.610;2023-01-10T04:18:53;5.70;99.90
16327;DHT22;34812;49.846;9.610;2023-01-10T04:19:55;5.70;99.90
16327;DHT22;34812;49.846;9.610;2023-01-10T04:20:56;5.70;99.90
16327;DHT22;34812;49.846;9.610;2023-01-10T04:21:57;5.70;99.90
16327;DHT22;34812;49.846;9.610;2023-01-10T04:22:59;5.70;99.90
16327;DHT22;34812;49.846;9.610;2023-01-10T04:23:59;5.70;99.90
16327;DHT22;34812;49.846;9.610;2023-01-10T04:25:01;5.70;99.90
16327;DHT22;34812;49.846;9.610;2023-01-10T04:26:03;5.60;99.90
16327;DHT22;34812;49.846;9.610;2023-01-10T04:27:04;5.70;99.90
16327;DHT22;34812;49.846;9.610;2023-01-10T04:28:06;5.60;99.90
16327;DHT22;34812;49.846;9.610;2023-01-10T04:29:06;5.60;99.90
16327;DHT22;34812;49.846;9.610;2023-01-10T04:30:09;5.60;99.90
16327;DHT22;34812;49.846;9.610;2023-01-10T04:31:10;5.60;99.90
16327;DHT22;34812;49.846;9.610;2023-01-10T04:32:11;5.60;99.90
16327;DHT22;34812;49.846;9.610;2023-01-10T04:33:12;5.60;99.90
16327;DHT22;34812;49.846;9.610;2023-01-10T04:34:14;5.50;99.90
16327;DHT22;34812;49.846;9.610;2023-01-10T04:35:16;5.60;99.90
16327;DHT22;34812;49.846;9.610;2023-01-10T04:36:17;5.60;99.90
16327;DHT22;34812;49.846;9.610;2023-01-10T04:37:19;5.60;99.90
16327;DHT22;34812;49.846;9.610;2023-01-10T04:38:20;5.60;99.90
16327;DHT22;34812;49.846;9.610;2023-01-10T04:39:21;5.60;99.90
16327;DHT22;34812;49.846;9.610;2023-01-10T04:40:22;5.60;99.90
16327;DHT22;34812;49.846;9.610;2023-01-10T04:41:24;5.60;99.90
16327;DHT22;34812;49.846;9.610;2023-01-10T04:42:24;5.60;99.90
16327;DHT22;34812;49.846;9.610;2023-01-10T04:43:26;5.60;99.90
16327;DHT22;34812;49.846;9.610;2023-01-10T04:44:27;5.60;99.90
16327;DHT22;34812;49.846;9.610;2023-01-10T04:45:28;5.60;99.90
16327;DHT22;34812;49.846;9.610;2023-01-10T04:46:29;5.60;99.90
16327;DHT22;34812;49.846;9.610;2023-01-10T04:47:31;5.60;99.90
16327;DHT22;34812;49.846;9.610;2023-01-10T04:48:32;5.60;99.90
16327;DHT22;34812;49.846;9.610;2023-01-10T04:49:34;5.60;99.90
16327;DHT22;34812;49.846;9.610;2023-01-10T04:50:36;5.60;99.90
16327;DHT22;34812;49.846;9.610;2023-01-10T04:51:38;5.60;99.90
16327;DHT22;34812;49.846;9.610;2023-01-10T04:52:38;5.70;99.90
16327;DHT22;34812;49.846;9.610;2023-01-10T04:53:41;5.70;99.90
16327;DHT22;34812;49.846;9.610;2023-01-10T04:54:42;5.80;99.90
16327;DHT22;34812;49.846;9.610;2023-01-10T04:55:43;5.80;99.90
16327;DHT22;34812;49.846;9.610;2023-01-10T04:56:44;5.70;99.90
16327;DHT22;34812;49.846;9.610;2023-01-10T04:57:46;5.80;99.90
16327;DHT22;34812;49.846;9.610;2023-01-10T04:58:47;5.80;99.90
16327;DHT22;34812;49.846;9.610;2023-01-10T04:59:49;5.80;99.90
16327;DHT22;34812;49.846;9.610;2023-01-10T05:00:49;5.80;99.90
16327;DHT22;34812;49.846;9.610;2023-01-10T05:01:51;5.80;99.90
16327;DHT22;34812;49.846;9.610;2023-01-10T05:02:54;5.80;99.90
16327;DHT22;34812;49.846;9.610;2023-01-10T05:03:56;5.80;99.90
16327;DHT22;34812;49.846;9.610;2023-01-10T05:04:57;5.70;99.90
16327;DHT22;34812;49.846;9.610;2023-01-10T05:06:00;5.70;99.90
16327;DHT22;34812;49.846;9.610;2023-01-10T05:07:01;5.70;99.90
16327;DHT22;34812;49.846;9.610;2023-01-10T05:08:03;5.70;99.90
16327;DHT22;34812;49.846;9.610;2023-01-10T05:09:04;5.70;99.90
16327;DHT22;34812;49.846;9.610;2023-01-10T05:10:07;5.60;99.90
16327;DHT22;34812;49.846;9.610;2023-01-10T05:11:07;5.60;99.90
16327;DHT22;34812;49.846;9.610;2023-01-10T05:12:09;5.60;99.90
16327;DHT22;34812;49.846;9.610;2023-01-10T05:13:10;5.60;99.90
16327;DHT22;34812;49.846;9.610;2023-01-10T05:14:11;5.60;99.90
16327;DHT22;34812;49.846;9.610;2023-01-10T05:15:12;5.60;99.90
16327;DHT22;34812;49.846;9.610;2023-01-10T05:16:14;5.60;99.90
16327;DHT22;34812;49.846;9.610;2023-01-10T05:17:15;5.60;99.90
16327;DHT22;34812;49.846;9.610;2023-01-10T05:18:17;5.60;99.90
16327;DHT22;34812;49.846;9.610;2023-01-10T05:19:17;5.60;99.90
16327;DHT22;34812;49.846;9.610;2023-01-10T05:20:19;5.60;99.90
16327;DHT22;34812;49.846;9.610;2023-01-10T05:21:21;5.70;99.90
16327;DHT22;34812;49.846;9.610;2023-01-10T05:22:23;5.70;99.90
16327;DHT22;34812;49.846;9.610;2023-01-10T05:23:24;5.70;99.90
16327;DHT22;34812;49.846;9.610;2023-01-10T05:24:26;5.70;99.90
16327;DHT22;34812;49.846;9.610;2023-01-10T05:25:27;5.70;99.90
16327;DHT22;34812;49.846;9.610;2023-01-10T05:26:28;5.70;99.90
16327;DHT22;34812;49.846;9.610;2023-01-10T05:27:29;5.70;99.90
16327;DHT22;34812;49.846;9.610;2023-01-10T05:28:30;5.70;99.90
16327;DHT22;34812;49.846;9.610;2023-01-10T05:29:31;5.80;99.90
16327;DHT22;34812;49.846;9.610;2023-01-10T05:30:33;5.80;99.90
16327;DHT22;34812;49.846;9.610;2023-01-10T05:31:34;5.80;99.90
16327;DHT22;34812;49.846;9.610;2023-01-10T05:32:35;5.80;99.90
16327;DHT22;34812;49.846;9.610;2023-01-10T05:33:37;5.80;99.90
16327;DHT22;34812;49.846;9.610;2023-01-10T05:34:38;5.70;99.90
16327;DHT22;34812;49.846;9.610;2023-01-10T05:35:39;5.70;99.90
16327;DHT22;34812;49.846;9.610;2023-01-10T05:36:42;5.70;99.90
16327;DHT22;34812;49.846;9.610;2023-01-10T05:37:43;5.70;99.90
16327;DHT22;34812;49.846;9.610;2023-01-10T05:38:45;5.70;99.90
16327;DHT22;34812;49.846;9.610;2023-01-10T05:39:45;5.70;99.90
16327;DHT22;34812;49.846;9.610;2023-01-10T05:40:47;5.70;99.90
16327;DHT22;34812;49.846;9.610;2023-01-10T05:41:48;5.70;99.90
16327;DHT22;34812;49.846;9.610;2023-01-10T05:42:49;5.80;99.90
16327;DHT22;34812;49.846;9.610;2023-01-10T05:43:51;5.80;99.90
16327;DHT22;34812;49.846;9.610;2023-01-10T05:44:53;5.80;99.90
16327;DHT22;34812;49.846;9.610;2023-01-10T05:45:53;5.80;99.90
16327;DHT22;34812;49.846;9.610;2023-01-10T05:46:55;5.80;99.90
16327;DHT22;34812;49.846;9.610;2023-01-10T05:47:56;5.80;99.90
16327;DHT22;34812;49.846;9.610;2023-01-10T05:48:57;5.80;99.90
16327;DHT22;34812;49.846;9.610;2023-01-10T05:49:58;5.70;99.90
16327;DHT22;34812;49.846;9.610;2023-01-10T05:51:00;5.70;99.90
16327;DHT22;34812;49.846;9.610;2023-01-10T05:52:02;5.80;99.90
16327;DHT22;34812;49.846;9.610;2023-01-10T05:53:04;5.80;99.90
16327;DHT22;34812;49.846;9.610;2023-01-10T05:54:05;5.80;99.90
16327;DHT22;34812;49.846;9.610;2023-01-10T05:55:07;5.80;99.90
16327;DHT22;34812;49.846;9.610;2023-01-10T05:56:08;5.80;99.90
16327;DHT22;34812;49.846;9.610;2023-01-10T05:57:10;5.80;99.90
16327;DHT22;34812;49.846;9.610;2023-01-10T05:58:10;5.80;99.90
16327;DHT22;34812;49.846;9.610;2023-01-10T05:59:12;5.80;99.90
16327;DHT22;34812;49.846;9.610;2023-01-10T06:00:14;5.80;99.90
16327;DHT22;34812;49.846;9.610;2023-01-10T06:01:16;5.80;99.90
16327;DHT22;34812;49.846;9.610;2023-01-10T06:02:17;5.80;99.90
16327;DHT22;34812;49.846;9.610;2023-01-10T06:03:18;5.80;99.90
16327;DHT22;34812;49.846;9.610;2023-01-10T06:04:19;5.80;99.90
16327;DHT22;34812;49.846;9.610;2023-01-10T06:05:21;5.90;99.90
16327;DHT22;34812;49.846;9.610;2023-01-10T06:06:22;5.80;99.90
16327;DHT22;34812;49.846;9.610;2023-01-10T06:07:25;5.90;99.90
16327;DHT22;34812;49.846;9.610;2023-01-10T06:08:25;5.90;99.90
16327;DHT22;34812;49.846;9.610;2023-01-10T06:09:27;5.90;99.90
16327;DHT22;34812;49.846;9.610;2023-01-10T06:10:28;5.90;99.90
16327;DHT22;34812;49.846;9.610;2023-01-10T06:11:29;5.90;99.90
16327;DHT22;34812;49.846;9.610;2023-01-10T06:12:30;5.90;99.90
16327;DHT22;34812;49.846;9.610;2023-01-10T06:13:32;5.90;99.90
16327;DHT22;34812;49.846;9.610;2023-01-10T06:14:33;5.90;99.90
16327;DHT22;34812;49.846;9.610;2023-01-10T06:15:35;5.90;99.90
16327;DHT22;34812;49.846;9.610;2023-01-10T06:16:35;6.00;99.90
16327;DHT22;34812;49.846;9.610;2023-01-10T06:17:37;5.90;99.90
16327;DHT22;34812;49.846;9.610;2023-01-10T06:18:38;5.90;99.90
16327;DHT22;34812;49.846;9.610;2023-01-10T06:19:39;5.90;99.90
16327;DHT22;34812;49.846;9.610;2023-01-10T06:20:40;5.80;99.90
16327;DHT22;34812;49.846;9.610;2023-01-10T06:21:42;5.80;99.90
16327;DHT22;34812;49.846;9.610;2023-01-10T06:22:44;5.90;99.90
16327;DHT22;34812;49.846;9.610;2023-01-10T06:23:46;5.90;99.90
16327;DHT22;34812;49.846;9.610;2023-01-10T06:24:46;5.90;99.90
16327;DHT22;34812;49.846;9.610;2023-01-10T06:25:48;5.90;99.90
16327;DHT22;34812;49.846;9.610;2023-01-10T06:26:48;5.90;99.90
16327;DHT22;34812;49.846;9.610;2023-01-10T06:27:50;5.90;99.90
16327;DHT22;34812;49.846;9.610;2023-01-10T06:28:51;5.90;99.90
16327;DHT22;34812;49.846;9.610;2023-01-10T06:29:53;5.90;99.90
16327;DHT22;34812;49.846;9.610;2023-01-10T06:30:53;5.90;99.90
16327;DHT22;34812;49.846;9.610;2023-01-10T06:31:55;5.90;99.90
16327;DHT22;34812;49.846;9.610;2023-01-10T06:32:59;5.90;99.90
16327;DHT22;34812;49.846;9.610;2023-01-10T06:34:01;5.90;99.90
16327;DHT22;34812;49.846;9.610;2023-01-10T06:35:03;5.90;99.90
16327;DHT22;34812;49.846;9.610;2023-01-10T06:36:05;5.80;99.90
16327;DHT22;34812;49.846;9.610;2023-01-10T06:37:06;5.90;99.90
16327;DHT22;34812;49.846;9.610;2023-01-10T06:38:09;5.90;99.90
16327;DHT22;34812;49.846;9.610;2023-01-10T06:39:10;5.90;99.90
16327;DHT22;34812;49.846;9.610;2023-01-10T06:40:11;5.90;99.90
16327;DHT22;34812;49.846;9.610;2023-01-10T06:41:13;5.90;99.90
16327;DHT22;34812;49.846;9.610;2023-01-10T06:42:14;5.90;99.90
16327;DHT22;34812;49.846;9.610;2023-01-10T06:43:15;5.90;99.90
16327;DHT22;34812;49.846;9.610;2023-01-10T06:44:17;6.00;99.90
16327;DHT22;34812;49.846;9.610;2023-01-10T06:45:18;6.00;99.90
16327;DHT22;34812;49.846;9.610;2023-01-10T06:46:20;6.00;99.90
16327;DHT22;34812;49.846;9.610;2023-01-10T06:47:21;6.00;99.90
16327;DHT22;34812;49.846;9.610;2023-01-10T06:48:22;6.00;99.90
16327;DHT22;34812;49.846;9.610;2023-01-10T06:49:24;6.00;99.90
16327;DHT22;34812;49.846;9.610;2023-01-10T06:50:24;6.00;99.90